aviador You're here:

ETSI Decoded Metar

INGOLSTADT in GERMANY
Report Time2018-02-25 10:20:00
UTC Time2018-02-25 11:29:07
Flight Rules Old
Wind060° at 12 kt
W.Decomp.*RWY 07: 11.7 kt HW 2.5 kt LCW
W.Rank060° ranks 8
Current wind is above 060° avg. (4.6)
VisibilityN/A
Phenomena:N/A
Clouds:N/A
Expected CloudBase > 3,600 ft AGL from Temp-Dew spread
CeilingNone
Temp-6°C (ISA -19)
Dew Point-15°C (49% RH)
AAT-13.7°C
QNH1023 hPa
Density Alt-1,391 ft
Elevation1,214 ft
Report Wrong Elevation
Raw Report
METAR ETSI 251020Z AUTO 06012KT //// // ////// M06/M15 Q1023 ///=

Extra information for ETSI:More info

Metar Taf Metar & Taf Last 4 Metars F.Rules Stats Wind Profile Meteogram Temp Stats Airport Information Weather charts Add Link Nearby VenuesMetar ALERT Operation Metar Decoded Social comments